Time;durP1;ratioP1;P1;durP2;ratioP2;P2;SDS_P1;SDS_P2;PMS_P1;PMS_P2;Temp;Humidity;BMP_temperature;BMP_pressure;BME280_temperature;BME280_humidity;BME280_pressure;Samples;Min_cycle;Max_cycle;Signal;HPM_P1;HPM_P2
2023/08/06 00:01:35;;;;;;;14.40;7.80;;;;;;;14.15;100.00;99892.45;111627;1205;98983;-72
2023/08/06 00:04:01;;;;;;;14.30;7.70;;;;;;;14.18;100.00;99893.69;111504;1208;138819;-72
2023/08/06 00:06:26;;;;;;;9.40;7.80;;;;;;;14.18;100.00;99878.23;111629;1204;99054;-72
2023/08/06 00:08:51;;;;;;;12.60;8.20;;;;;;;14.17;100.00;99856.00;111664;1205;99010;-72
2023/08/06 00:11:16;;;;;;;9.90;7.40;;;;;;;14.15;100.00;99852.55;111579;1206;138810;-71
2023/08/06 00:13:42;;;;;;;13.70;7.30;;;;;;;14.14;100.00;99857.33;111666;1208;99225;-71
2023/08/06 00:16:11;;;;;;;14.40;8.50;;;;;;;14.13;100.00;99856.52;111595;1205;138801;-71
2023/08/06 00:18:37;;;;;;;10.40;7.50;;;;;;;14.14;100.00;99859.98;111743;1208;99262;-72
2023/08/06 00:21:02;;;;;;;16.70;8.90;;;;;;;14.15;100.00;99855.45;111493;1208;139200;-72
2023/08/06 00:23:27;;;;;;;24.50;8.60;;;;;;;14.12;100.00;99857.06;111703;1205;98909;-72
2023/08/06 00:25:52;;;;;;;13.80;8.50;;;;;;;14.13;100.00;99853.61;111638;1208;98967;-71
2023/08/06 00:28:18;;;;;;;14.00;8.90;;;;;;;14.13;100.00;99844.27;111527;1205;139099;-72
2023/08/06 00:30:43;;;;;;;15.70;8.00;;;;;;;14.14;100.00;99839.02;111664;1205;98991;-71
2023/08/06 00:33:08;;;;;;;14.70;9.10;;;;;;;14.15;100.00;99833.33;111459;1210;139619;-71
2023/08/06 00:35:33;;;;;;;13.30;8.10;;;;;;;14.15;100.00;99825.24;111662;1209;99373;-71
2023/08/06 00:37:59;;;;;;;13.00;8.40;;;;;;;14.13;100.00;99821.96;111639;1208;98996;-71
2023/08/06 00:40:24;;;;;;;13.80;8.70;;;;;;;14.11;100.00;99813.86;111602;1208;139704;-71
2023/08/06 00:42:49;;;;;;;11.20;7.50;;;;;;;14.11;100.00;99808.81;111642;1209;98930;-71
2023/08/06 00:45:14;;;;;;;13.50;8.20;;;;;;;14.10;100.00;99808.04;111558;1208;138985;-71
2023/08/06 00:47:41;;;;;;;12.00;7.90;;;;;;;14.07;100.00;99802.48;111486;1209;98949;-71
2023/08/06 00:50:07;;;;;;;13.00;7.90;;;;;;;14.08;100.00;99795.58;111670;1209;98967;-71
2023/08/06 00:52:33;;;;;;;12.40;7.80;;;;;;;14.08;100.00;99783.03;111580;1204;140069;-71
2023/08/06 00:54:59;;;;;;;10.50;8.20;;;;;;;14.09;100.00;99774.15;111593;1221;107859;-71
2023/08/06 00:57:24;;;;;;;13.70;8.50;;;;;;;14.09;100.00;99770.18;111534;1205;139774;-71
2023/08/06 00:59:50;;;;;;;11.00;8.20;;;;;;;14.09;100.00;99766.75;111749;1204;98993;-71
2023/08/06 01:02:15;;;;;;;19.80;10.50;;;;;;;14.09;100.00;99763.50;111613;1205;99635;-70
2023/08/06 01:04:40;;;;;;;16.50;10.20;;;;;;;14.11;100.00;99756.04;111510;1211;139029;-71
2023/08/06 01:07:35;;;;;;;16.70;9.90;;;;;;;14.13;100.00;99748.90;111705;1208;99000;-69
2023/08/06 01:10:19;;;;;;;18.50;10.60;;;;;;;14.12;100.00;99737.98;111460;1208;140875;-69
2023/08/06 01:13:16;;;;;;;16.30;9.10;;;;;;;14.11;100.00;99727.45;111675;1203;99206;-70
2023/08/06 01:15:46;;;;;;;17.10;8.20;;;;;;;14.11;100.00;99715.60;111534;1209;140979;-70
2023/08/06 01:18:12;;;;;;;12.30;8.50;;;;;;;14.08;100.00;99711.51;111612;1206;99103;-70
2023/08/06 01:20:37;;;;;;;17.80;9.40;;;;;;;14.09;100.00;99709.13;111614;1208;98285;-70
2023/08/06 01:23:02;;;;;;;12.40;8.60;;;;;;;14.10;100.00;99708.33;111520;1205;139696;-70
2023/08/06 01:25:38;;;;;;;11.00;7.70;;;;;;;14.10;100.00;99706.20;111611;1209;99666;-70
2023/08/06 01:28:38;;;;;;;11.60;8.10;;;;;;;14.11;100.00;99702.31;111552;1209;139487;-69
2023/08/06 01:31:07;;;;;;;13.60;7.30;;;;;;;14.13;100.00;99690.30;111642;1205;97830;-69
2023/08/06 01:33:36;;;;;;;13.60;7.90;;;;;;;14.13;100.00;99684.37;111515;1208;139014;-69
2023/08/06 01:36:03;;;;;;;15.50;7.70;;;;;;;14.12;100.00;99683.54;111614;1205;98926;-69
2023/08/06 01:38:29;;;;;;;12.10;7.60;;;;;;;14.13;100.00;99684.70;111601;1206;106970;-69
2023/08/06 01:40:54;;;;;;;11.70;8.20;;;;;;;14.15;100.00;99681.17;111543;1205;140014;-70
2023/08/06 01:43:19;;;;;;;9.70;6.60;;;;;;;14.17;100.00;99681.23;111747;1207;100326;-70
2023/08/06 01:45:45;;;;;;;11.90;7.50;;;;;;;14.18;100.00;99675.58;111534;1205;139390;-70
2023/08/06 01:48:10;;;;;;;9.10;6.30;;;;;;;14.18;100.00;99664.80;111720;1208;100298;-70
2023/08/06 01:50:35;;;;;;;8.50;6.40;;;;;;;14.17;100.00;99655.70;111670;1205;99070;-69
2023/08/06 01:53:00;;;;;;;10.10;7.60;;;;;;;14.16;100.00;99650.70;111510;1208;139272;-69
2023/08/06 01:55:26;;;;;;;8.90;5.70;;;;;;;14.18;100.00;99655.23;111706;1206;99045;-68
2023/08/06 01:57:51;;;;;;;9.40;6.50;;;;;;;14.18;100.00;99647.36;111550;1207;139120;-69
2023/08/06 02:00:16;;;;;;;8.60;6.00;;;;;;;14.16;100.00;99645.33;111662;1205;99057;-69
2023/08/06 02:02:44;;;;;;;12.00;7.50;;;;;;;14.17;100.00;99639.34;111685;1205;99436;-70
2023/08/06 02:05:09;;;;;;;12.70;6.50;;;;;;;14.18;100.00;99632.77;111475;1209;138908;-70
2023/08/06 02:07:34;;;;;;;9.00;4.80;;;;;;;14.18;100.00;99616.08;111744;1206;99015;-69
2023/08/06 02:10:00;;;;;;;9.10;5.70;;;;;;;14.17;100.00;99600.89;111496;1208;140755;-70
2023/08/06 02:12:25;;;;;;;7.30;4.70;;;;;;;14.14;100.00;99589.77;111668;1205;99370;-70
2023/08/06 02:14:50;;;;;;;5.60;3.80;;;;;;;14.13;100.00;99585.35;111647;1208;98920;-70
2023/08/06 02:17:16;;;;;;;6.20;4.80;;;;;;;14.13;100.00;99585.40;111525;1208;139219;-70
2023/08/06 02:19:43;;;;;;;5.40;4.20;;;;;;;14.12;100.00;99586.89;111718;1205;98956;-70
2023/08/06 02:22:08;;;;;;;6.40;4.00;;;;;;;14.13;100.00;99583.59;111490;1211;139278;-70
2023/08/06 02:24:33;;;;;;;6.30;4.00;;;;;;;14.13;100.00;99577.86;111617;1208;100468;-70
2023/08/06 02:26:58;;;;;;;3.90;3.50;;;;;;;14.13;100.00;99570.16;111583;1205;139930;-71
2023/08/06 02:29:24;;;;;;;5.40;3.70;;;;;;;14.12;100.00;99561.77;111608;1205;98940;-70
2023/08/06 02:31:49;;;;;;;3.90;3.10;;;;;;;14.11;100.00;99553.91;111645;1205;98911;-69
2023/08/06 02:34:14;;;;;;;3.00;2.60;;;;;;;14.10;100.00;99548.59;111528;1205;138763;-69
2023/08/06 02:36:39;;;;;;;4.00;2.80;;;;;;;14.07;100.00;99546.14;111720;1208;99040;-67
2023/08/06 02:39:04;;;;;;;3.40;2.90;;;;;;;14.06;100.00;99535.27;111463;1211;141746;-69
2023/08/06 02:41:30;;;;;;;4.10;2.40;;;;;;;14.03;100.00;99532.22;111658;1206;98943;-69
2023/08/06 02:43:55;;;;;;;2.80;2.40;;;;;;;14.03;100.00;99528.84;111701;1208;99030;-69
2023/08/06 02:46:20;;;;;;;2.60;2.40;;;;;;;14.04;100.00;99522.67;111489;1208;139891;-69
2023/08/06 02:48:46;;;;;;;3.10;2.80;;;;;;;14.02;100.00;99517.98;111648;1217;99046;-68
2023/08/06 02:51:11;;;;;;;3.70;3.40;;;;;;;14.02;100.00;99506.30;111513;1209;139550;-69
2023/08/06 02:53:36;;;;;;;3.10;2.60;;;;;;;14.01;100.00;99503.10;111784;1205;98984;-68
2023/08/06 02:56:02;;;;;;;1.50;1.40;;;;;;;14.03;100.00;99497.98;111730;1208;105471;-67
2023/08/06 02:58:27;;;;;;;2.40;2.00;;;;;;;14.02;100.00;99491.94;111581;1209;139145;-68
2023/08/06 03:01:05;;;;;;;2.90;2.00;;;;;;;13.99;100.00;99478.85;111669;1204;99002;-67
2023/08/06 03:03:31;;;;;;;4.20;2.50;;;;;;;13.99;100.00;99472.56;111489;1205;138972;-67
2023/08/06 03:05:56;;;;;;;2.90;2.40;;;;;;;13.97;100.00;99463.03;111626;1205;99036;-69
2023/08/06 03:08:22;;;;;;;2.30;2.10;;;;;;;13.96;100.00;99459.13;111673;1205;97796;-69
2023/08/06 03:10:51;;;;;;;3.90;2.50;;;;;;;13.95;100.00;99455.92;111474;1205;141741;-68
2023/08/06 03:13:17;;;;;;;3.30;2.70;;;;;;;13.96;100.00;99448.92;111615;1205;100537;-69
2023/08/06 03:15:43;;;;;;;2.10;1.90;;;;;;;13.97;100.00;99440.34;111477;1208;138843;-69
2023/08/06 03:18:08;;;;;;;3.00;2.40;;;;;;;13.95;100.00;99432.20;111603;1208;98941;-69
2023/08/06 03:20:34;;;;;;;2.40;2.20;;;;;;;13.96;100.00;99427.34;111691;1211;98917;-68
2023/08/06 03:22:59;;;;;;;2.00;1.90;;;;;;;13.94;100.00;99414.55;111495;1208;139213;-69
2023/08/06 03:25:25;;;;;;;2.20;1.80;;;;;;;13.92;100.00;99416.35;111674;1204;98933;-67
2023/08/06 03:27:50;;;;;;;3.50;2.90;;;;;;;13.92;100.00;99407.71;111514;1211;139300;-68
2023/08/06 03:30:15;;;;;;;2.30;2.00;;;;;;;13.89;100.00;99406.13;111648;1205;99481;-67
2023/08/06 03:32:40;;;;;;;2.70;2.30;;;;;;;13.89;100.00;99398.42;111585;1205;107409;-69
2023/08/06 03:35:06;;;;;;;2.00;1.80;;;;;;;13.90;100.00;99389.41;111408;1204;140821;-68
2023/08/06 03:37:31;;;;;;;2.40;2.10;;;;;;;13.90;100.00;99383.44;111667;1205;97788;-69
2023/08/06 03:39:57;;;;;;;2.30;1.90;;;;;;;13.90;100.00;99380.58;111455;1206;139895;-69
2023/08/06 03:42:22;;;;;;;2.70;2.10;;;;;;;13.91;100.00;99373.27;111694;1217;98328;-69
2023/08/06 03:44:47;;;;;;;3.00;2.70;;;;;;;13.91;100.00;99365.59;111595;1209;99038;-68
2023/08/06 03:47:13;;;;;;;2.50;2.30;;;;;;;13.92;100.00;99353.44;111452;1203;138502;-69
2023/08/06 03:49:38;;;;;;;3.10;2.10;;;;;;;13.92;100.00;99334.08;111724;1208;99043;-69
2023/08/06 03:52:05;;;;;;;2.50;2.30;;;;;;;13.91;100.00;99341.89;111474;1206;139237;-69
2023/08/06 03:54:30;;;;;;;2.40;2.20;;;;;;;13.91;100.00;99346.73;111639;1208;98926;-69
2023/08/06 03:56:55;;;;;;;2.20;1.90;;;;;;;13.90;100.00;99348.96;111679;1208;99002;-69
2023/08/06 03:59:20;;;;;;;2.30;2.00;;;;;;;13.89;100.00;99351.38;111495;1211;138890;-69
2023/08/06 04:01:46;;;;;;;2.90;1.70;;;;;;;13.89;100.00;99358.70;111715;1208;98912;-70
2023/08/06 04:04:11;;;;;;;1.90;1.80;;;;;;;13.90;100.00;99361.69;111507;1208;139231;-69
2023/08/06 04:06:36;;;;;;;3.30;2.00;;;;;;;13.87;100.00;99361.23;111712;1208;98937;-69
2023/08/06 04:09:01;;;;;;;2.60;2.10;;;;;;;13.87;100.00;99358.37;111498;1204;139260;-70
2023/08/06 04:11:27;;;;;;;3.30;2.00;;;;;;;13.87;100.00;99354.91;111630;1209;98844;-70
2023/08/06 04:13:54;;;;;;;1.80;1.70;;;;;;;13.87;100.00;99359.45;111691;1206;98969;-69
2023/08/06 04:16:19;;;;;;;2.30;2.10;;;;;;;13.86;100.00;99356.81;111505;1208;139298;-67
2023/08/06 04:18:45;;;;;;;2.40;2.10;;;;;;;13.87;100.00;99352.58;111660;1209;99013;-70
2023/08/06 04:21:11;;;;;;;2.80;1.90;;;;;;;13.86;100.00;99337.77;111588;1209;139372;-68
2023/08/06 04:23:36;;;;;;;1.80;1.70;;;;;;;13.85;100.00;99328.34;111632;1208;98984;-68
2023/08/06 04:26:01;;;;;;;2.10;1.60;;;;;;;13.81;100.00;99327.38;111546;1208;98945;-69
2023/08/06 04:28:26;;;;;;;1.50;1.40;;;;;;;13.80;100.00;99325.70;111595;1208;138827;-67
2023/08/06 04:30:53;;;;;;;1.40;1.30;;;;;;;13.76;100.00;99326.16;111578;1206;98807;-69
2023/08/06 04:33:18;;;;;;;1.80;1.40;;;;;;;13.78;100.00;99321.21;111475;1208;139640;-69
2023/08/06 04:35:44;;;;;;;1.50;1.40;;;;;;;13.77;100.00;99320.18;111681;1208;98948;-69
2023/08/06 04:38:09;;;;;;;2.00;1.60;;;;;;;13.74;100.00;99323.99;111594;1208;98912;-67
2023/08/06 04:40:36;;;;;;;1.70;1.50;;;;;;;13.72;100.00;99327.56;111574;1208;138804;-67
2023/08/06 04:43:01;;;;;;;2.70;1.70;;;;;;;13.72;100.00;99336.34;111669;1206;107327;-70
2023/08/06 04:45:26;;;;;;;2.20;2.00;;;;;;;13.72;100.00;99337.63;111498;1208;139086;-69
2023/08/06 04:47:51;;;;;;;2.80;2.30;;;;;;;13.72;100.00;99348.61;111704;1206;98916;-69
2023/08/06 04:50:16;;;;;;;3.40;2.20;;;;;;;13.69;100.00;99358.16;111586;1206;98992;-68
2023/08/06 04:52:42;;;;;;;2.10;1.90;;;;;;;13.69;100.00;99372.33;111568;1208;138547;-68
2023/08/06 04:55:07;;;;;;;2.20;2.00;;;;;;;13.68;100.00;99379.04;111604;1208;99113;-69
2023/08/06 04:57:32;;;;;;;1.90;1.80;;;;;;;13.68;100.00;99373.11;111550;1209;139766;-68
2023/08/06 04:59:58;;;;;;;2.20;2.10;;;;;;;13.67;100.00;99368.33;111601;1207;107432;-69
2023/08/06 05:02:23;;;;;;;2.50;1.60;;;;;;;13.68;100.00;99358.08;111600;1208;98977;-69
2023/08/06 05:04:48;;;;;;;4.50;2.30;;;;;;;13.67;100.00;99361.87;111617;1208;138755;-69
2023/08/06 05:07:13;;;;;;;2.80;2.00;;;;;;;13.66;100.00;99365.20;111609;1208;99144;-67
2023/08/06 05:09:38;;;;;;;3.60;2.20;;;;;;;13.64;100.00;99370.93;111645;1217;139226;-71
2023/08/06 05:12:04;;;;;;;2.00;1.90;;;;;;;13.62;100.00;99366.61;111668;1205;99031;-70
2023/08/06 05:14:30;;;;;;;2.20;1.90;;;;;;;13.62;100.00;99358.66;111650;1209;98947;-69
2023/08/06 05:16:55;;;;;;;2.00;1.90;;;;;;;13.62;100.00;99360.48;111625;1206;139502;-68
2023/08/06 05:19:20;;;;;;;4.00;1.90;;;;;;;13.59;100.00;99354.23;111611;1208;99060;-69
2023/08/06 05:21:45;;;;;;;2.10;1.80;;;;;;;13.58;100.00;99341.94;111599;1208;139546;-68
2023/08/06 05:24:12;;;;;;;5.40;1.70;;;;;;;13.56;100.00;99313.93;111700;1207;98904;-67
2023/08/06 05:26:37;;;;;;;2.40;1.40;;;;;;;13.52;100.00;99314.77;111754;1208;100032;-68
2023/08/06 05:29:02;;;;;;;1.20;1.10;;;;;;;13.47;100.00;99317.81;111643;1206;140529;-68
2023/08/06 05:31:28;;;;;;;2.30;1.30;;;;;;;13.45;100.00;99312.98;111677;1208;99312;-68
2023/08/06 05:33:54;;;;;;;1.40;1.30;;;;;;;13.43;100.00;99303.21;111577;1207;139280;-68
2023/08/06 05:36:19;;;;;;;1.00;0.90;;;;;;;13.43;100.00;99301.09;111697;1209;99027;-67
2023/08/06 05:38:45;;;;;;;0.90;0.90;;;;;;;13.40;100.00;99293.98;111703;1208;99019;-68
2023/08/06 05:41:10;;;;;;;1.60;1.10;;;;;;;13.39;100.00;99291.41;111627;1208;139355;-69
2023/08/06 05:43:35;;;;;;;2.00;1.40;;;;;;;13.38;100.00;99301.86;111729;1208;99180;-70
2023/08/06 05:46:00;;;;;;;1.30;1.20;;;;;;;13.38;100.00;99314.96;111681;1206;140736;-69
2023/08/06 05:48:27;;;;;;;1.10;1.10;;;;;;;13.38;100.00;99319.25;111769;1208;112209;-69
2023/08/06 05:50:53;;;;;;;1.40;1.20;;;;;;;13.38;100.00;99313.30;111759;1208;99072;-70
2023/08/06 05:53:18;;;;;;;1.50;1.40;;;;;;;13.37;100.00;99319.84;111622;1205;140118;-70
2023/08/06 05:55:44;;;;;;;3.70;1.10;;;;;;;13.39;100.00;99323.83;111769;1208;100249;-71
2023/08/06 05:58:10;;;;;;;1.30;1.20;;;;;;;13.38;100.00;99321.39;111645;1208;138834;-70
2023/08/06 06:00:35;;;;;;;1.30;1.20;;;;;;;13.37;100.00;99307.11;111789;1206;99087;-68
2023/08/06 06:03:02;;;;;;;1.30;1.20;;;;;;;13.37;100.00;99296.73;111651;1209;138770;-71
2023/08/06 06:05:27;;;;;;;1.50;1.30;;;;;;;13.37;100.00;99287.73;111796;1208;98938;-71
2023/08/06 06:07:53;;;;;;;1.20;1.10;;;;;;;13.37;100.00;99280.95;111705;1208;100241;-69
2023/08/06 06:10:18;;;;;;;2.30;1.10;;;;;;;13.39;100.00;99270.88;111651;1206;140212;-71
2023/08/06 06:12:43;;;;;;;2.00;1.10;;;;;;;13.38;100.00;99275.99;111668;1208;99943;-67
2023/08/06 06:15:09;;;;;;;1.70;1.10;;;;;;;13.40;100.00;99275.12;111609;1208;141614;-69
2023/08/06 06:17:34;;;;;;;1.20;0.90;;;;;;;13.41;100.00;99273.45;111700;1206;97784;-67
2023/08/06 06:20:00;;;;;;;2.30;1.00;;;;;;;13.42;100.00;99276.23;111699;1209;99380;-70
2023/08/06 06:22:25;;;;;;;1.10;1.10;;;;;;;13.42;100.00;99257.21;111747;1208;140321;-68
2023/08/06 06:24:50;;;;;;;3.50;1.20;;;;;;;13.41;100.00;99252.13;111796;1203;98966;-68
2023/08/06 06:27:15;;;;;;;1.90;0.90;;;;;;;13.38;100.00;99239.61;111719;1208;139440;-66
2023/08/06 06:29:41;;;;;;;2.80;0.80;;;;;;;13.37;100.00;99229.11;111757;1205;98942;-69
2023/08/06 06:32:06;;;;;;;5.30;1.00;;;;;;;13.36;100.00;99229.16;111834;1208;99517;-69
2023/08/06 06:34:31;;;;;;;1.40;0.90;;;;;;;13.34;100.00;99219.59;111674;1206;138685;-68
2023/08/06 06:36:57;;;;;;;1.50;1.00;;;;;;;13.35;100.00;99217.21;111795;1208;98936;-69
2023/08/06 06:39:22;;;;;;;2.30;1.20;;;;;;;13.36;100.00;99211.98;111724;1203;139728;-71
2023/08/06 06:41:47;;;;;;;2.30;0.70;;;;;;;13.33;100.00;99195.10;111786;1206;98941;-68
2023/08/06 06:44:13;;;;;;;1.20;1.10;;;;;;;13.34;100.00;99179.44;111818;1203;98963;-68
2023/08/06 06:46:39;;;;;;;0.90;0.80;;;;;;;13.35;100.00;99198.36;111656;1209;140341;-68
2023/08/06 06:49:04;;;;;;;1.10;1.00;;;;;;;13.36;100.00;99202.27;111761;1208;99570;-69
2023/08/06 06:51:31;;;;;;;1.10;1.00;;;;;;;13.36;100.00;99199.51;111685;1208;140753;-69
2023/08/06 06:53:56;;;;;;;1.80;1.70;;;;;;;13.38;100.00;99203.38;111706;1217;108819;-69
2023/08/06 06:56:22;;;;;;;1.30;1.20;;;;;;;13.39;100.00;99202.40;111707;1206;98946;-69
2023/08/06 06:58:47;;;;;;;2.80;0.60;;;;;;;13.39;100.00;99193.27;111605;1206;140881;-68
2023/08/06 07:01:12;;;;;;;0.70;0.70;;;;;;;13.39;100.00;99194.28;111720;1207;99029;-69
2023/08/06 07:03:37;;;;;;;0.90;0.90;;;;;;;13.40;100.00;99188.84;111647;1209;139703;-69
2023/08/06 07:06:03;;;;;;;1.00;0.90;;;;;;;13.43;100.00;99180.73;111763;1208;98972;-69
2023/08/06 07:08:28;;;;;;;1.90;1.00;;;;;;;13.44;100.00;99172.04;111769;1203;98934;-68
2023/08/06 07:11:02;;;;;;;1.00;0.90;;;;;;;13.43;100.00;99164.41;111689;1204;141338;-69
2023/08/06 07:13:27;;;;;;;1.00;0.80;;;;;;;13.44;100.00;99156.92;111846;1209;99702;-68
2023/08/06 07:15:54;;;;;;;1.30;0.70;;;;;;;13.45;100.00;99148.05;111756;1203;139125;-67
2023/08/06 07:18:19;;;;;;;1.60;1.00;;;;;;;13.46;100.00;99145.48;111747;1207;98989;-69
2023/08/06 07:20:49;;;;;;;2.50;0.70;;;;;;;13.46;100.00;99151.42;111879;1209;98860;-68
2023/08/06 07:23:15;;;;;;;0.90;0.80;;;;;;;13.46;100.00;99152.13;113257;1203;138658;-70
2023/08/06 07:25:40;;;;;;;1.30;0.90;;;;;;;13.46;100.00;99158.54;111789;1203;98973;-68
2023/08/06 07:28:05;;;;;;;2.00;1.00;;;;;;;13.47;100.00;99153.65;111685;1203;138845;-70
2023/08/06 07:30:30;;;;;;;1.10;1.00;;;;;;;13.47;100.00;99152.05;111808;1203;99000;-68
2023/08/06 07:32:56;;;;;;;0.70;0.70;;;;;;;13.47;100.00;99155.41;111825;1209;98896;-70
2023/08/06 07:35:21;;;;;;;0.60;0.60;;;;;;;13.49;100.00;99147.19;111632;1208;140038;-71
2023/08/06 07:37:46;;;;;;;1.60;0.60;;;;;;;13.49;100.00;99140.75;111790;1206;98990;-68
2023/08/06 07:40:12;;;;;;;1.50;0.50;;;;;;;13.49;100.00;99144.13;111556;1208;138661;-69
2023/08/06 07:42:37;;;;;;;1.00;0.60;;;;;;;13.51;100.00;99149.75;111761;1208;99034;-69
2023/08/06 07:45:02;;;;;;;4.80;1.10;;;;;;;13.50;100.00;99149.83;111712;1203;139874;-68
2023/08/06 07:47:28;;;;;;;1.60;1.20;;;;;;;13.50;100.00;99145.55;111791;1208;101957;-69
2023/08/06 07:49:53;;;;;;;3.70;0.80;;;;;;;13.50;100.00;99144.40;111857;1203;99079;-68
2023/08/06 07:52:18;;;;;;;2.60;1.20;;;;;;;13.52;100.00;99134.22;111561;1206;138922;-67
2023/08/06 07:54:43;;;;;;;3.60;0.80;;;;;;;13.51;100.00;99136.13;111797;1203;98928;-67
2023/08/06 07:57:09;;;;;;;1.20;0.90;;;;;;;13.50;100.00;99137.03;111696;1209;141127;-69
2023/08/06 07:59:34;;;;;;;1.10;1.00;;;;;;;13.49;100.00;99135.17;111839;1215;97807;-67
2023/08/06 08:02:00;;;;;;;2.30;0.70;;;;;;;13.52;100.00;99138.21;111816;1208;98978;-67
2023/08/06 08:04:25;;;;;;;0.90;0.70;;;;;;;13.53;100.00;99121.20;111693;1203;139908;-67
2023/08/06 08:06:50;;;;;;;1.00;0.90;;;;;;;13.55;100.00;99117.85;111771;1208;98996;-68
2023/08/06 08:09:16;;;;;;;1.10;0.70;;;;;;;13.55;100.00;99120.52;111743;1208;140489;-68
2023/08/06 08:11:41;;;;;;;1.00;0.90;;;;;;;13.54;100.00;99113.10;111798;1209;99239;-68
2023/08/06 08:14:07;;;;;;;1.50;0.70;;;;;;;13.53;100.00;99114.38;111847;1209;98925;-68
2023/08/06 08:16:33;;;;;;;1.10;0.60;;;;;;;13.54;100.00;99124.21;111632;1208;139293;-68
2023/08/06 08:18:58;;;;;;;3.40;1.10;;;;;;;13.54;100.00;99129.77;111655;1209;99358;-68
2023/08/06 08:21:24;;;;;;;4.10;1.00;;;;;;;13.56;100.00;99139.66;111620;1208;140030;-67
2023/08/06 08:23:50;;;;;;;2.00;0.80;;;;;;;13.56;100.00;99137.47;111682;1209;99053;-67
2023/08/06 08:26:15;;;;;;;1.80;0.80;;;;;;;13.55;100.00;99137.16;111743;1206;98946;-68
2023/08/06 08:28:40;;;;;;;1.50;1.00;;;;;;;13.56;100.00;99136.92;111651;1208;139551;-67
2023/08/06 08:31:09;;;;;;;1.00;0.50;;;;;;;13.55;100.00;99134.13;111617;1206;99016;-67
2023/08/06 08:33:34;;;;;;;2.10;0.90;;;;;;;13.57;100.00;99119.32;111644;1208;140544;-68
2023/08/06 08:36:00;;;;;;;0.50;0.50;;;;;;;13.56;100.00;99109.82;111626;1206;98947;-68
2023/08/06 08:38:25;;;;;;;10.30;2.30;;;;;;;13.57;100.00;99093.94;111723;1208;100491;-67
2023/08/06 08:40:54;;;;;;;1.70;0.40;;;;;;;13.57;100.00;99094.02;111528;1206;140087;-69
2023/08/06 08:43:23;;;;;;;0.80;0.60;;;;;;;13.55;100.00;99090.88;111655;1208;98904;-68
2023/08/06 08:45:54;;;;;;;0.60;0.60;;;;;;;13.56;100.00;99068.55;111554;1218;139739;-69
2023/08/06 08:48:21;;;;;;;0.10;0.10;;;;;;;13.57;100.00;99070.25;111660;1206;112407;-69
2023/08/06 08:50:49;;;;;;;0.90;0.40;;;;;;;13.57;100.00;99062.56;111643;1209;99000;-71
2023/08/06 08:53:15;;;;;;;1.40;0.60;;;;;;;13.57;100.00;99050.94;111513;1209;138912;-70
2023/08/06 08:55:43;;;;;;;1.50;0.60;;;;;;;13.58;100.00;99045.27;111670;1208;98954;-73
2023/08/06 08:58:08;;;;;;;0.70;0.60;;;;;;;13.58;100.00;99042.89;111574;1207;139441;-70
2023/08/06 09:00:34;;;;;;;1.20;0.40;;;;;;;13.60;100.00;99044.38;111755;1208;99200;-66
2023/08/06 09:03:01;;;;;;;1.20;0.30;;;;;;;13.61;100.00;99045.55;111583;1208;139793;-72
2023/08/06 09:05:30;;;;;;;5.80;0.30;;;;;;;13.63;100.00;99049.66;111649;1205;98819;-73
2023/08/06 09:08:02;;;;;;;1.70;0.40;;;;;;;13.63;100.00;99052.41;111845;1208;98951;-71
2023/08/06 09:10:28;;;;;;;2.90;0.50;;;;;;;13.64;100.00;99047.77;111410;1206;139411;-72
2023/08/06 09:12:55;;;;;;;0.20;0.20;;;;;;;13.65;100.00;99044.15;111657;1203;98907;-70
2023/08/06 09:15:24;;;;;;;0.40;0.40;;;;;;;13.65;100.00;99041.23;111543;1206;139172;-70
2023/08/06 09:17:50;;;;;;;1.60;0.40;;;;;;;13.66;100.00;99049.29;111502;1207;99047;-70
2023/08/06 09:20:16;;;;;;;0.50;0.50;;;;;;;13.65;100.00;99033.02;111668;1208;98912;-70
2023/08/06 09:22:41;;;;;;;0.60;0.20;;;;;;;13.67;100.00;99028.21;111585;1206;138810;-69
2023/08/06 09:25:10;;;;;;;0.30;0.20;;;;;;;13.68;100.00;99020.42;111653;1205;99072;-69
2023/08/06 09:27:37;;;;;;;0.80;0.10;;;;;;;13.68;100.00;99016.98;111715;1208;139616;-67
2023/08/06 09:30:03;;;;;;;0.10;0.10;;;;;;;13.67;100.00;99001.46;111752;1206;98929;-67
2023/08/06 09:32:44;;;;;;;0.70;0.20;;;;;;;13.67;100.00;98995.71;111790;1203;99137;-68
2023/08/06 09:35:15;;;;;;;0.80;0.10;;;;;;;13.68;100.00;98984.89;111576;1208;139668;-69
2023/08/06 09:37:40;;;;;;;0.60;0.20;;;;;;;13.68;100.00;98975.31;111684;1206;107828;-69
2023/08/06 09:40:25;;;;;;;1.00;0.30;;;;;;;13.68;100.00;98969.39;111522;1206;140000;-68
2023/08/06 09:42:50;;;;;;;1.80;0.50;;;;;;;13.71;100.00;98970.23;111721;1208;98920;-66
2023/08/06 09:45:16;;;;;;;0.20;0.20;;;;;;;13.71;100.00;98960.19;111514;1208;139041;-65
2023/08/06 09:47:41;;;;;;;0.40;0.40;;;;;;;13.70;100.00;98949.54;111683;1208;99014;-67
2023/08/06 09:50:15;;;;;;;1.70;0.20;;;;;;;13.69;100.00;98935.64;111642;1206;98909;-67
2023/08/06 09:52:42;;;;;;;0.80;0.10;;;;;;;13.67;100.00;98949.39;111536;1205;139750;-68
2023/08/06 09:55:10;;;;;;;0.40;0.10;;;;;;;13.68;100.00;98968.91;111730;1208;98278;-67
2023/08/06 09:57:35;;;;;;;0.10;0.10;;;;;;;13.68;100.00;98970.70;111568;1206;140674;-68
2023/08/06 10:00:02;;;;;;;3.30;0.60;;;;;;;13.70;100.00;98956.90;111643;1208;98954;-68
2023/08/06 10:02:27;;;;;;;1.50;0.20;;;;;;;13.72;100.00;98936.46;111835;1208;99027;-69
2023/08/06 10:04:55;;;;;;;3.60;0.20;;;;;;;13.71;100.00;98936.52;111487;1206;139326;-69
2023/08/06 10:07:22;;;;;;;0.60;0.30;;;;;;;13.69;100.00;98941.17;111665;1206;101765;-68
2023/08/06 10:09:47;;;;;;;2.50;0.40;;;;;;;13.71;100.00;98935.61;111390;1209;140658;-68
2023/08/06 10:12:14;;;;;;;1.00;0.30;;;;;;;13.74;100.00;98939.52;111657;1206;98598;-68
2023/08/06 10:14:41;;;;;;;2.40;0.40;;;;;;;13.75;100.00;98940.63;111486;1209;112841;-69
2023/08/06 10:17:07;;;;;;;1.00;0.40;;;;;;;13.75;100.00;98942.84;111478;1208;139067;-68
2023/08/06 10:19:33;;;;;;;1.70;0.20;;;;;;;13.74;100.00;98940.20;111591;1206;98976;-69
2023/08/06 10:22:17;;;;;;;1.60;0.40;;;;;;;13.75;100.00;98910.67;111524;1206;138756;-68
2023/08/06 10:24:49;;;;;;;1.20;0.40;;;;;;;13.76;100.00;98890.50;111659;1206;113207;-69
2023/08/06 10:27:34;;;;;;;0.40;0.20;;;;;;;13.74;100.00;98916.16;111409;1206;140411;-69
2023/08/06 10:30:21;;;;;;;1.60;0.50;;;;;;;13.74;100.00;98950.98;111569;1205;107459;-68
2023/08/06 10:32:49;;;;;;;1.80;0.70;;;;;;;13.73;100.00;98943.54;111604;1209;98690;-69
2023/08/06 10:35:44;;;;;;;5.30;1.00;;;;;;;13.74;100.00;98908.77;111491;1206;138525;-69
2023/08/06 10:38:15;;;;;;;1.80;0.40;;;;;;;13.78;100.00;98891.05;111548;1206;112852;-70
2023/08/06 10:40:41;;;;;;;;;;;;;;;13.78;100.00;98909.70;111465;1204;139965;-68
2023/08/06 10:43:08;;;;;;;0.60;0.30;;;;;;;13.75;100.00;98918.01;111583;1208;99149;-69
2023/08/06 10:45:35;;;;;;;1.00;0.30;;;;;;;13.75;100.00;98910.45;111408;1206;139432;-69
2023/08/06 10:48:01;;;;;;;0.50;0.40;;;;;;;13.76;100.00;98903.96;111636;1206;98971;-71
2023/08/06 10:50:26;;;;;;;2.40;0.30;;;;;;;13.76;100.00;98900.39;111718;1205;102004;-69
2023/08/06 10:52:52;;;;;;;1.10;0.40;;;;;;;13.74;100.00;98877.70;111517;1206;138839;-70
2023/08/06 10:55:26;;;;;;;1.60;0.40;;;;;;;13.76;100.00;98873.43;111640;1208;98962;-71
2023/08/06 10:57:52;;;;;;;1.90;0.30;;;;;;;13.78;100.00;98882.80;111454;1206;139542;-70
2023/08/06 11:00:17;;;;;;;2.70;0.20;;;;;;;13.77;100.00;98877.47;111581;1208;97784;-69
2023/08/06 11:02:43;;;;;;;2.20;0.50;;;;;;;13.75;100.00;98876.15;111696;1204;98916;-69
2023/08/06 11:05:10;;;;;;;1.60;0.30;;;;;;;13.75;100.00;98882.30;111483;1209;138857;-70
2023/08/06 11:07:36;;;;;;;4.80;0.50;;;;;;;13.76;100.00;98887.41;111694;1206;100564;-71
2023/08/06 11:10:03;;;;;;;0.40;0.30;;;;;;;13.77;100.00;98896.69;111504;1208;138771;-68